Terminal Aerodrome Forecast
Issued by NWS Sterling, VA

Current Version | Previous Version | Graphics & Text | Print | Product List | Glossary On
Versions: 1 2 3 4 5 6 7 8 9 10 11 12 13 14 15 16 17 18 19 20 21 22
073
FTUS41 KLWX 192324
TAFIAD
TAF
KIAD 192324Z 2000/2106 34010G20KT P6SM SCT035
     FM200200 33006KT P6SM SCT250
     FM202000 26005KT P6SM SCT100
     FM202200 22005KT P6SM BKN090
     FM210000 15004KT 5SM -SHRA BKN050=

USA.gov is the U.S. government's official web portal to all federal, state and local government web resources and services.